Shanghai Express — DPCK — position and weather

sailwx.info

Track history (hours):
 
Tides and Currents Weather Stations Pressure Air Temp Water Temp Dewpoint Dewpoint Depression Visibility Wind Speed Wind Dir Waves Ship Positions

Shanghai Express

Last reported at 2015-Aug-26 13:27 UTC. Time now 2015-Sep-01 22:21 UTC.
Position N 32°07' W 079°27'.

Length 320.6 m; beam 42.8 m; draft 14.5 m.

Type: Ship (hazmat cat A). MMSI: 211367460.

Date/timePositionNaut miles runAvg speedWind from/ knotsBaromVisibWave heightAir tempDewpointWater temp
2015-Aug-26 13:27N 32°07' W 079°27'1010.1
2015-Aug-26 12:27N 32°04' W 079°39'19 9.9
2015-Aug-26 10:33N 32°01' W 080°00'1010.2
2015-Aug-26 09:33N 31°60' W 080°12'1010.0
2015-Aug-26 08:33N 31°59' W 080°24'10 9.8
2015-Aug-26 07:33N 31°57' W 080°35'1110.7
2015-Aug-26 06:31N 32°01' W 080°48'1010.9
2015-Aug-26 05:34N 32°05' W 080°59'6 6.3
2015-Aug-26 04:33N 32°06' W 081°07'2 1.9
2015-Aug-26 03:29N 32°07' W 081°08'0 0.0
2015-Aug-26 02:29N 32°07' W 081°08'0 0.0
2015-Aug-26 01:31N 32°07' W 081°08'0 0.0
2015-Aug-26 00:31N 32°07' W 081°08'0 0.0
2015-Aug-25 23:33N 32°07' W 081°08'0 0.0
2015-Aug-25 22:33N 32°07' W 081°08'0 0.0
2015-Aug-25 21:29N 32°07' W 081°08'0 0.0
2015-Aug-25 20:32N 32°07' W 081°08'0 0.0
2015-Aug-25 19:33N 32°07' W 081°08'0 0.0
2015-Aug-25 18:33N 32°07' W 081°08'0 0.0
2015-Aug-25 17:31N 32°07' W 081°08'0 0.0
2015-Aug-25 16:31N 32°07' W 081°08'0 0.0
2015-Aug-25 15:33N 32°07' W 081°08'0 0.0
2015-Aug-25 14:32N 32°07' W 081°08'0 0.0
2015-Aug-25 13:32N 32°07' W 081°08'0 0.0
2015-Aug-25 12:31N 32°07' W 081°08'0 0.0
2015-Aug-25 11:31N 32°07' W 081°08'0 0.0
2015-Aug-25 10:34N 32°07' W 081°08'0 0.1
2015-Aug-25 09:34N 32°08' W 081°08'3 3.2
2015-Aug-25 08:34N 32°05' W 081°06'8 7.6
2015-Aug-25 07:33N 32°04' W 080°57'1211.7
2015-Aug-25 06:34N 31°59' W 080°45'7 7.3
2015-Aug-25 05:34N 31°57' W 080°36'9 8.7
2015-Aug-25 04:31N 31°58' W 080°26'24411.1
2015-Aug-24 06:33N 34°08' W 076°20'1717.4
2015-Aug-24 05:33N 34°20' W 076°04'1817.9
2015-Aug-24 04:32N 34°33' W 075°48'1717.1
2015-Aug-24 03:34N 34°44' W 075°33'1515.1
2015-Aug-24 02:32N 34°55' W 075°20'1413.9
2015-Aug-24 01:31N 35°05' W 075°08'24217.2
2015-Aug-23 11:24N 39°02' W 074°00'1517.7
2015-Aug-23 10:32N 39°16' W 073°56'1717.7
2015-Aug-23 09:34N 39°34' W 073°52'1717.1
2015-Aug-23 08:34N 39°51' W 073°51'1717.4
2015-Aug-23 07:34N 40°08' W 073°50'1717.1
2015-Aug-23 06:33N 40°25' W 073°49'1413.6
2015-Aug-23 05:34N 40°34' W 074°02'6 6.3
2015-Aug-23 04:33N 40°40' W 074°05'0 0.0
2015-Aug-23 03:32N 40°40' W 074°05'0 0.0
2015-Aug-23 02:32N 40°40' W 074°05'0 0.0
2015-Aug-23 01:31N 40°40' W 074°05'0 0.0
2015-Aug-23 00:31N 40°40' W 074°05'0 0.0
2015-Aug-22 23:33N 40°40' W 074°05'0 0.0
2015-Aug-22 22:33N 40°40' W 074°05'0 0.0
2015-Aug-22 21:27N 40°40' W 074°05'0 0.0
2015-Aug-22 20:32N 40°40' W 074°05'0 0.0
2015-Aug-22 19:32N 40°40' W 074°05'0 0.0
2015-Aug-22 18:31N 40°40' W 074°05'0 0.0
2015-Aug-22 17:31N 40°40' W 074°05'0 0.0
2015-Aug-22 16:33N 40°40' W 074°05'0 0.0
2015-Aug-22 15:33N 40°40' W 074°05'0 0.2
2015-Aug-22 14:33N 40°40' W 074°05'0 0.2
2015-Aug-22 13:32N 40°40' W 074°05'0 0.0
2015-Aug-22 12:31N 40°40' W 074°05'0 0.0
2015-Aug-22 11:31N 40°40' W 074°05'0 0.0
2015-Aug-22 10:33N 40°40' W 074°05'0 0.0
2015-Aug-22 09:33N 40°40' W 074°05'0 0.0
2015-Aug-22 08:32N 40°40' W 074°05'0 0.0
2015-Aug-22 07:32N 40°40' W 074°05'0 0.0
2015-Aug-22 06:32N 40°40' W 074°05'0 0.0
2015-Aug-22 05:31N 40°40' W 074°05'0 0.0
2015-Aug-22 04:31N 40°40' W 074°05'0 0.0
2015-Aug-22 03:30N 40°40' W 074°05'0 0.0
2015-Aug-22 02:30N 40°40' W 074°05'0 0.0
2015-Aug-22 01:32N 40°40' W 074°05'0 0.0
2015-Aug-22 00:32N 40°40' W 074°05'0 0.0
2015-Aug-21 23:31N 40°40' W 074°05'0 0.0
2015-Aug-21 22:31N 40°40' W 074°05'0 0.0
2015-Aug-21 21:33N 40°40' W 074°05'0 0.0
2015-Aug-21 20:33N 40°40' W 074°05'0 0.0
2015-Aug-21 19:32N 40°40' W 074°05'0 0.0
2015-Aug-21 18:34N 40°40' W 074°05'0 0.0
2015-Aug-21 17:33N 40°40' W 074°05'0 0.0
2015-Aug-21 16:32N 40°40' W 074°05'0 0.0
2015-Aug-21 15:31N 40°40' W 074°05'0 0.0
2015-Aug-21 14:34N 40°40' W 074°05'7 6.5
2015-Aug-21 13:33N 40°34' W 074°02'1313.2
2015-Aug-21 12:33N 40°27' W 073°47'1616.2
2015-Aug-21 11:34N 40°29' W 073°26'1818.0
2015-Aug-21 10:33N 40°30' W 073°03'1918.8
2015-Aug-21 09:34N 40°31' W 072°38'1918.8
2015-Aug-21 08:34N 40°31' W 072°13'1918.8
2015-Aug-21 07:33N 40°31' W 071°49'1919.2
2015-Aug-21 06:33N 40°32' W 071°23'1919.3
2015-Aug-21 05:34N 40°32' W 070°58'1919.4
2015-Aug-21 04:33N 40°32' W 070°33'1919.2
2015-Aug-21 03:34N 40°33' W 070°07'1919.2
2015-Aug-21 02:33N 40°33' W 069°42'1919.3
2015-Aug-21 01:33N 40°34' W 069°16'1918.8
2015-Aug-21 00:34N 40°37' W 068°52'1919.5
2015-Aug-20 23:33N 40°46' W 068°29'2119.4
2015-Aug-20 22:30N 40°55' W 068°05'2719.5
2015-Aug-20 21:07N 41°07' W 067°33'  
Track history (hours):
 
Tides and Currents Weather Stations Pressure Air Temp Water Temp Dewpoint Dewpoint Depression Visibility Wind Speed Wind Dir Waves Ship Positions

Shanghai Express

Last reported at 2015-Aug-26 13:27 UTC. Time now 2015-Sep-01 22:21 UTC.
Position N 32°07' W 079°27'.

Length 320.6 m; beam 42.8 m; draft 14.5 m.

Type: Ship (hazmat cat A). MMSI: 211367460.

Date/timePositionNaut miles runAvg speedWind from/ knotsBaromVisibWave heightAir tempDewpointWater temp
2015-Aug-26 13:27N 32°07' W 079°27'1010.1
2015-Aug-26 12:27N 32°04' W 079°39'19 9.9
2015-Aug-26 10:33N 32°01' W 080°00'1010.2
2015-Aug-26 09:33N 31°60' W 080°12'1010.0
2015-Aug-26 08:33N 31°59' W 080°24'10 9.8
2015-Aug-26 07:33N 31°57' W 080°35'1110.7
2015-Aug-26 06:31N 32°01' W 080°48'1010.9
2015-Aug-26 05:34N 32°05' W 080°59'6 6.3
2015-Aug-26 04:33N 32°06' W 081°07'2 1.9
2015-Aug-26 03:29N 32°07' W 081°08'0 0.0
2015-Aug-26 02:29N 32°07' W 081°08'0 0.0
2015-Aug-26 01:31N 32°07' W 081°08'0 0.0
2015-Aug-26 00:31N 32°07' W 081°08'0 0.0
2015-Aug-25 23:33N 32°07' W 081°08'0 0.0
2015-Aug-25 22:33N 32°07' W 081°08'0 0.0
2015-Aug-25 21:29N 32°07' W 081°08'0 0.0
2015-Aug-25 20:32N 32°07' W 081°08'0 0.0
2015-Aug-25 19:33N 32°07' W 081°08'0 0.0
2015-Aug-25 18:33N 32°07' W 081°08'0 0.0
2015-Aug-25 17:31N 32°07' W 081°08'0 0.0
2015-Aug-25 16:31N 32°07' W 081°08'0 0.0
2015-Aug-25 15:33N 32°07' W 081°08'0 0.0
2015-Aug-25 14:32N 32°07' W 081°08'0 0.0
2015-Aug-25 13:32N 32°07' W 081°08'0 0.0
2015-Aug-25 12:31N 32°07' W 081°08'0 0.0
2015-Aug-25 11:31N 32°07' W 081°08'0 0.0
2015-Aug-25 10:34N 32°07' W 081°08'0 0.1
2015-Aug-25 09:34N 32°08' W 081°08'3 3.2
2015-Aug-25 08:34N 32°05' W 081°06'8 7.6
2015-Aug-25 07:33N 32°04' W 080°57'1211.7
2015-Aug-25 06:34N 31°59' W 080°45'7 7.3
2015-Aug-25 05:34N 31°57' W 080°36'9 8.7
2015-Aug-25 04:31N 31°58' W 080°26'24411.1
2015-Aug-24 06:33N 34°08' W 076°20'1717.4
2015-Aug-24 05:33N 34°20' W 076°04'1817.9
2015-Aug-24 04:32N 34°33' W 075°48'1717.1
2015-Aug-24 03:34N 34°44' W 075°33'1515.1
2015-Aug-24 02:32N 34°55' W 075°20'1413.9
2015-Aug-24 01:31N 35°05' W 075°08'24217.2
2015-Aug-23 11:24N 39°02' W 074°00'1517.7
2015-Aug-23 10:32N 39°16' W 073°56'1717.7
2015-Aug-23 09:34N 39°34' W 073°52'1717.1
2015-Aug-23 08:34N 39°51' W 073°51'1717.4
2015-Aug-23 07:34N 40°08' W 073°50'1717.1
2015-Aug-23 06:33N 40°25' W 073°49'1413.6
2015-Aug-23 05:34N 40°34' W 074°02'6 6.3
2015-Aug-23 04:33N 40°40' W 074°05'0 0.0
2015-Aug-23 03:32N 40°40' W 074°05'0 0.0
2015-Aug-23 02:32N 40°40' W 074°05'0 0.0
2015-Aug-23 01:31N 40°40' W 074°05'0 0.0
2015-Aug-23 00:31N 40°40' W 074°05'0 0.0
2015-Aug-22 23:33N 40°40' W 074°05'0 0.0
2015-Aug-22 22:33N 40°40' W 074°05'0 0.0
2015-Aug-22 21:27N 40°40' W 074°05'0 0.0
2015-Aug-22 20:32N 40°40' W 074°05'0 0.0
2015-Aug-22 19:32N 40°40' W 074°05'0 0.0
2015-Aug-22 18:31N 40°40' W 074°05'0 0.0
2015-Aug-22 17:31N 40°40' W 074°05'0 0.0
2015-Aug-22 16:33N 40°40' W 074°05'0 0.0
2015-Aug-22 15:33N 40°40' W 074°05'0 0.2
2015-Aug-22 14:33N 40°40' W 074°05'0 0.2
2015-Aug-22 13:32N 40°40' W 074°05'0 0.0
2015-Aug-22 12:31N 40°40' W 074°05'0 0.0
2015-Aug-22 11:31N 40°40' W 074°05'0 0.0
2015-Aug-22 10:33N 40°40' W 074°05'0 0.0
2015-Aug-22 09:33N 40°40' W 074°05'0 0.0
2015-Aug-22 08:32N 40°40' W 074°05'0 0.0
2015-Aug-22 07:32N 40°40' W 074°05'0 0.0
2015-Aug-22 06:32N 40°40' W 074°05'0 0.0
2015-Aug-22 05:31N 40°40' W 074°05'0 0.0
2015-Aug-22 04:31N 40°40' W 074°05'0 0.0
2015-Aug-22 03:30N 40°40' W 074°05'0 0.0
2015-Aug-22 02:30N 40°40' W 074°05'0 0.0
2015-Aug-22 01:32N 40°40' W 074°05'0 0.0
2015-Aug-22 00:32N 40°40' W 074°05'0 0.0
2015-Aug-21 23:31N 40°40' W 074°05'0 0.0
2015-Aug-21 22:31N 40°40' W 074°05'0 0.0
2015-Aug-21 21:33N 40°40' W 074°05'0 0.0
2015-Aug-21 20:33N 40°40' W 074°05'0 0.0
2015-Aug-21 19:32N 40°40' W 074°05'0 0.0
2015-Aug-21 18:34N 40°40' W 074°05'0 0.0
2015-Aug-21 17:33N 40°40' W 074°05'0 0.0
2015-Aug-21 16:32N 40°40' W 074°05'0 0.0
2015-Aug-21 15:31N 40°40' W 074°05'0 0.0
2015-Aug-21 14:34N 40°40' W 074°05'7 6.5
2015-Aug-21 13:33N 40°34' W 074°02'1313.2
2015-Aug-21 12:33N 40°27' W 073°47'1616.2
2015-Aug-21 11:34N 40°29' W 073°26'1818.0
2015-Aug-21 10:33N 40°30' W 073°03'1918.8
2015-Aug-21 09:34N 40°31' W 072°38'1918.8
2015-Aug-21 08:34N 40°31' W 072°13'1918.8
2015-Aug-21 07:33N 40°31' W 071°49'1919.2
2015-Aug-21 06:33N 40°32' W 071°23'1919.3
2015-Aug-21 05:34N 40°32' W 070°58'1919.4
2015-Aug-21 04:33N 40°32' W 070°33'1919.2
2015-Aug-21 03:34N 40°33' W 070°07'1919.2
2015-Aug-21 02:33N 40°33' W 069°42'1919.3
2015-Aug-21 01:33N 40°34' W 069°16'1918.8
2015-Aug-21 00:34N 40°37' W 068°52'1919.5
2015-Aug-20 23:33N 40°46' W 068°29'2119.4
2015-Aug-20 22:30N 40°55' W 068°05'2719.5
2015-Aug-20 21:07N 41°07' W 067°33'  

Dump ship's entire track history